Time;durP1;ratioP1;P1;durP2;ratioP2;P2;SDS_P1;SDS_P2;PMS_P1;PMS_P2;Temp;Humidity;BMP_temperature;BMP_pressure;BME280_temperature;BME280_humidity;BME280_pressure;Samples;Min_cycle;Max_cycle;Signal;HPM_P1;HPM_P2
2023/10/29 00:00:34;;;;;;;5.80;3.50;;;10.80;99.90;;;;;;15480313;23;20402;-33
2023/10/29 00:06:36;;;;;;;5.97;3.42;;;10.80;99.90;;;;;;15478261;23;20043;-33
2023/10/29 00:12:38;;;;;;;7.10;3.67;;;10.80;99.90;;;;;;15449867;23;20028;-34
2023/10/29 00:18:40;;;;;;;3.58;2.60;;;10.80;99.90;;;;;;15479029;23;20024;-34
2023/10/29 00:24:42;;;;;;;3.65;2.85;;;10.90;99.90;;;;;;15479369;23;20028;-33
2023/10/29 00:30:44;;;;;;;4.00;2.60;;;11.00;99.90;;;;;;15481664;23;20028;-33
2023/10/29 00:36:46;;;;;;;5.25;2.58;;;11.00;99.90;;;;;;15480084;23;20042;-33
2023/10/29 00:42:48;;;;;;;3.28;2.60;;;11.00;99.90;;;;;;15487573;23;20291;-33
2023/10/29 00:48:50;;;;;;;3.63;2.67;;;11.10;99.90;;;;;;15480580;23;20454;-33
2023/10/29 00:54:52;;;;;;;3.65;2.50;;;11.10;99.90;;;;;;15483193;23;20029;-34
2023/10/29 01:00:54;;;;;;;4.68;2.67;;;11.00;99.90;;;;;;15455481;23;20028;-35
2023/10/29 01:06:57;;;;;;;3.60;2.45;;;11.10;99.90;;;;;;15480787;23;20082;-34
2023/10/29 01:12:59;;;;;;;3.05;2.47;;;11.10;99.90;;;;;;15479240;23;20028;-34
2023/10/29 01:19:01;;;;;;;3.05;2.40;;;11.10;99.90;;;;;;15485654;23;20028;-34
2023/10/29 01:25:07;;;;;;;4.55;2.50;;;11.10;99.90;;;;;;15485004;23;20023;-34
2023/10/29 01:31:09;;;;;;;3.47;2.30;;;11.10;99.90;;;;;;15485667;23;20024;-34
2023/10/29 01:37:11;;;;;;;3.63;2.10;;;11.20;99.90;;;;;;15478877;23;20098;-34
2023/10/29 01:43:13;;;;;;;4.13;2.10;;;11.20;99.90;;;;;;15486546;23;20354;-34
2023/10/29 01:49:15;;;;;;;3.78;2.22;;;11.30;99.90;;;;;;15480390;23;20362;-34
2023/10/29 01:55:16;;;;;;;2.70;2.08;;;11.30;99.90;;;;;;15483376;23;20020;-34
2023/10/29 02:01:18;;;;;;;3.08;2.13;;;11.30;99.90;;;;;;15485560;23;20465;-34
2023/10/29 02:07:20;;;;;;;2.53;2.00;;;11.40;99.90;;;;;;15483228;23;20024;-34
2023/10/29 02:13:22;;;;;;;2.33;1.80;;;11.50;99.90;;;;;;15485220;23;20518;-34
2023/10/29 02:19:24;;;;;;;2.83;1.80;;;11.50;99.90;;;;;;15481582;23;20020;-34
2023/10/29 02:25:27;;;;;;;2.40;1.80;;;11.50;99.90;;;;;;15479285;23;20020;-34
2023/10/29 02:31:28;;;;;;;2.72;1.92;;;11.60;99.90;;;;;;15478478;23;20028;-33
2023/10/29 02:37:30;;;;;;;3.33;2.00;;;11.50;99.90;;;;;;15480986;23;20016;-34
2023/10/29 02:43:33;;;;;;;2.33;1.83;;;11.50;99.90;;;;;;15478151;23;20363;-34
2023/10/29 02:49:35;;;;;;;2.60;1.70;;;11.60;99.90;;;;;;15474680;23;20134;-34
2023/10/29 02:55:37;;;;;;;5.63;1.80;;;11.70;99.90;;;;;;15469683;23;20345;-34
2023/10/29 03:01:39;;;;;;;1.63;1.23;;;11.70;99.90;;;;;;15482105;23;20035;-34
2023/10/29 03:07:41;;;;;;;1.63;1.38;;;11.80;99.90;;;;;;15478043;23;20327;-34
2023/10/29 03:13:43;;;;;;;2.58;1.30;;;11.90;99.90;;;;;;15476222;23;20039;-34
2023/10/29 03:19:45;;;;;;;3.30;1.13;;;12.00;99.90;;;;;;15478398;23;20352;-34
2023/10/29 03:25:47;;;;;;;4.10;1.30;;;12.00;99.90;;;;;;15479707;23;20024;-34
2023/10/29 03:31:50;;;;;;;1.67;1.17;;;12.10;99.90;;;;;;15475517;23;20114;-34
2023/10/29 03:37:52;;;;;;;1.60;1.00;;;12.20;99.90;;;;;;15480605;23;20478;-34
2023/10/29 03:43:54;;;;;;;2.72;1.50;;;12.20;99.90;;;;;;15477978;23;20489;-34
2023/10/29 03:49:56;;;;;;;2.20;1.15;;;12.10;99.90;;;;;;15455360;23;20024;-35
2023/10/29 03:56:00;;;;;;;2.65;1.40;;;12.10;99.90;;;;;;15473674;23;20028;-34
2023/10/29 04:02:02;;;;;;;;;;;12.10;99.90;;;;;;15481831;23;20449;-34
2023/10/29 04:08:04;;;;;;;2.17;1.33;;;12.10;99.90;;;;;;15478724;23;20667;-35
2023/10/29 04:14:06;;;;;;;1.70;1.30;;;12.10;99.90;;;;;;15481135;23;20298;-34
2023/10/29 04:20:09;;;;;;;3.00;1.40;;;12.30;99.90;;;;;;15485718;23;20024;-35
2023/10/29 04:26:11;;;;;;;2.53;1.30;;;12.30;99.90;;;;;;15456703;23;20027;-34
2023/10/29 04:32:12;;;;;;;3.30;1.38;;;12.30;99.90;;;;;;15479915;23;20044;-34
2023/10/29 04:38:14;;;;;;;3.08;1.73;;;12.30;99.90;;;;;;15480844;23;20023;-34
2023/10/29 04:44:16;;;;;;;3.28;1.45;;;12.30;99.90;;;;;;15486254;23;20024;-34
2023/10/29 04:50:18;;;;;;;2.30;1.40;;;12.30;99.90;;;;;;15483015;23;20028;-35
2023/10/29 04:56:20;;;;;;;1.70;1.10;;;12.30;99.90;;;;;;15451586;23;20537;-34
2023/10/29 05:02:22;;;;;;;1.85;1.30;;;12.30;99.90;;;;;;15484069;23;20345;-34
2023/10/29 05:08:24;;;;;;;2.25;1.20;;;12.40;99.90;;;;;;15485005;23;20028;-34
2023/10/29 05:14:26;;;;;;;3.15;1.23;;;12.40;99.90;;;;;;15478997;23;20462;-35
2023/10/29 05:20:28;;;;;;;2.15;1.30;;;12.40;99.90;;;;;;15462182;23;20398;-35
2023/10/29 05:26:30;;;;;;;4.57;1.38;;;12.20;99.90;;;;;;15481519;23;20020;-34
2023/10/29 05:32:33;;;;;;;6.22;1.42;;;12.10;99.90;;;;;;15486393;23;20496;-35
2023/10/29 05:38:35;;;;;;;2.90;1.50;;;12.00;99.90;;;;;;15457220;23;20086;-34
2023/10/29 05:44:37;;;;;;;2.85;1.40;;;12.00;99.90;;;;;;15479936;23;20346;-34
2023/10/29 05:50:39;;;;;;;2.45;1.30;;;12.00;99.90;;;;;;15480645;23;20545;-34
2023/10/29 05:56:41;;;;;;;4.07;1.27;;;12.00;99.90;;;;;;15454267;23;20055;-34
2023/10/29 06:02:43;;;;;;;3.88;1.05;;;12.00;99.90;;;;;;15482659;23;20099;-34
2023/10/29 06:08:45;;;;;;;3.13;1.10;;;12.20;99.90;;;;;;15474822;23;20024;-35
2023/10/29 06:14:48;;;;;;;3.63;1.20;;;12.20;99.90;;;;;;15481132;23;20020;-33
2023/10/29 06:20:52;;;;;;;1.55;1.00;;;12.20;99.90;;;;;;15485293;23;20024;-34
2023/10/29 06:26:54;;;;;;;5.30;1.30;;;12.30;99.90;;;;;;15483031;23;20103;-34
2023/10/29 06:33:00;;;;;;;1.55;1.20;;;12.40;99.90;;;;;;15483665;23;20023;-34
2023/10/29 06:39:02;;;;;;;3.80;1.00;;;12.50;99.90;;;;;;15476056;23;20020;-35
2023/10/29 06:45:05;;;;;;;2.92;1.10;;;12.50;99.90;;;;;;15480237;23;20078;-34
2023/10/29 06:51:10;;;;;;;2.17;0.77;;;12.60;99.90;;;;;;15473979;23;20350;-34
2023/10/29 06:57:12;;;;;;;;;;;12.80;99.90;;;;;;15470992;23;20024;-34
2023/10/29 07:03:14;;;;;;;1.90;0.88;;;12.80;99.90;;;;;;15483229;23;19923;-34
2023/10/29 07:09:16;;;;;;;2.92;0.98;;;12.90;99.90;;;;;;15481718;23;20024;-35
2023/10/29 07:15:18;;;;;;;1.67;0.73;;;13.00;99.90;;;;;;15446802;23;20091;-34
2023/10/29 07:21:20;;;;;;;2.35;0.82;;;13.10;99.90;;;;;;15477677;23;20020;-34
2023/10/29 07:27:22;;;;;;;1.75;0.90;;;13.20;99.90;;;;;;15480191;23;20099;-34
2023/10/29 07:33:25;;;;;;;2.88;0.75;;;13.30;99.90;;;;;;15476585;23;20024;-34
2023/10/29 07:39:27;;;;;;;2.40;0.75;;;13.30;99.90;;;;;;15454284;23;20147;-35
2023/10/29 07:45:29;;;;;;;2.72;0.80;;;13.40;99.90;;;;;;15455355;23;20031;-34
2023/10/29 07:51:31;;;;;;;4.13;0.88;;;13.40;99.90;;;;;;15484434;23;20032;-34
2023/10/29 07:57:33;;;;;;;1.40;0.80;;;13.50;99.90;;;;;;15453057;23;20024;-34
2023/10/29 08:03:35;;;;;;;4.53;1.05;;;13.50;99.90;;;;;;15485245;23;20768;-35
2023/10/29 08:09:37;;;;;;;2.10;0.85;;;13.60;99.90;;;;;;15482882;23;20151;-35
2023/10/29 08:15:39;;;;;;;1.65;0.70;;;13.50;99.90;;;;;;15483188;23;20056;-35
2023/10/29 08:21:44;;;;;;;1.80;0.77;;;13.70;99.90;;;;;;15485476;23;20466;-34
2023/10/29 08:27:47;;;;;;;1.65;0.70;;;13.70;99.90;;;;;;15478459;23;20133;-34
2023/10/29 08:33:49;;;;;;;1.73;0.90;;;13.60;99.90;;;;;;15483221;23;20028;-34
2023/10/29 08:39:51;;;;;;;4.63;0.85;;;13.70;99.90;;;;;;15479490;23;20062;-40
2023/10/29 08:45:53;;;;;;;2.10;0.82;;;13.60;99.90;;;;;;15452059;23;20024;-34
2023/10/29 08:51:55;;;;;;;2.72;0.75;;;13.70;99.90;;;;;;15481891;23;20098;-34
2023/10/29 08:57:57;;;;;;;1.60;0.70;;;13.90;99.90;;;;;;15486121;23;20024;-34
2023/10/29 09:04:00;;;;;;;1.60;0.80;;;14.00;99.90;;;;;;15458806;23;20020;-34
2023/10/29 09:10:02;;;;;;;2.70;0.63;;;13.90;99.90;;;;;;15478436;23;20032;-34
2023/10/29 09:16:04;;;;;;;2.95;0.73;;;14.00;99.90;;;;;;15483502;23;20036;-34
2023/10/29 09:22:07;;;;;;;1.00;0.60;;;14.20;99.90;;;;;;15486375;23;20388;-34
2023/10/29 09:28:11;;;;;;;2.13;0.70;;;14.30;99.90;;;;;;15484694;23;20137;-34
2023/10/29 09:34:13;;;;;;;;;;;14.40;99.90;;;;;;15486609;23;20027;-35
2023/10/29 09:40:16;;;;;;;2.75;0.70;;;14.50;99.90;;;;;;15482816;23;19924;-35
2023/10/29 09:46:23;;;;;;;2.22;0.90;;;14.50;99.90;;;;;;15485148;23;20024;-35
2023/10/29 09:52:28;;;;;;;3.40;0.93;;;14.50;99.90;;;;;;15486835;23;20028;-34
2023/10/29 09:58:31;;;;;;;2.47;0.63;;;14.50;99.90;;;;;;15487097;23;20020;-35
2023/10/29 10:04:36;;;;;;;2.58;0.65;;;14.50;99.90;;;;;;15491180;23;20027;-35
2023/10/29 10:10:41;;;;;;;3.28;0.70;;;14.50;99.90;;;;;;15470321;23;20105;-35
2023/10/29 10:16:44;;;;;;;3.80;0.93;;;14.60;99.90;;;;;;15486434;23;20078;-34
2023/10/29 10:23:02;;;;;;;2.28;0.60;;;14.50;99.90;;;;;;15547992;22;20333;-34
2023/10/29 10:29:07;;;;;;;0.95;0.50;;;14.80;99.90;;;;;;15552909;22;20126;-34
2023/10/29 10:35:08;;;;;;;2.00;0.50;;;14.90;99.90;;;;;;15555103;22;20036;-35
2023/10/29 10:41:11;;;;;;;3.42;0.63;;;14.90;99.90;;;;;;15556433;22;20066;-34
2023/10/29 10:47:13;;;;;;;0.75;0.40;;;14.70;99.90;;;;;;15557938;22;20023;-34
2023/10/29 10:53:16;;;;;;;3.72;0.77;;;14.70;99.90;;;;;;15555219;22;20096;-35
2023/10/29 10:59:19;;;;;;;2.95;0.80;;;14.70;99.90;;;;;;15553292;22;20030;-35
2023/10/29 11:05:22;;;;;;;3.38;0.50;;;14.90;99.90;;;;;;15511672;22;20034;-34
2023/10/29 11:11:36;;;;;;;3.90;0.50;;;15.00;99.90;;;;;;15554622;22;20035;-35
2023/10/29 11:17:57;;;;;;;2.15;0.52;;;15.10;99.90;;;;;;15526498;22;20028;-34
2023/10/29 11:24:18;;;;;;;1.92;0.50;;;15.40;99.90;;;;;;15476147;23;20062;-34
2023/10/29 11:30:22;;;;;;;2.50;0.63;;;15.50;99.90;;;;;;15477166;23;20031;-34
2023/10/29 11:36:37;;;;;;;1.83;0.60;;;15.50;99.90;;;;;;15447839;23;20028;-34
2023/10/29 11:42:39;;;;;;;4.40;0.70;;;15.30;99.90;;;;;;15438203;23;20682;-34
2023/10/29 11:49:06;;;;;;;1.88;0.52;;;15.40;99.90;;;;;;15468198;23;20087;-34
2023/10/29 11:55:10;;;;;;;2.67;0.73;;;15.20;99.90;;;;;;15474634;23;20024;-34
2023/10/29 12:01:16;;;;;;;;;;;15.20;99.90;;;;;;15462006;23;20047;-34
2023/10/29 12:07:25;;;;;;;1.92;0.40;;;15.10;99.90;;;;;;15473893;23;19966;-34
2023/10/29 12:13:40;;;;;;;1.42;0.50;;;15.30;99.90;;;;;;15471126;23;20607;-35
2023/10/29 12:19:44;;;;;;;2.03;0.57;;;15.70;99.90;;;;;;15453657;22;20025;-34
2023/10/29 12:25:46;;;;;;;2.45;0.70;;;15.70;99.90;;;;;;15464949;23;20123;-34
2023/10/29 12:31:48;;;;;;;0.80;0.30;;;15.60;99.90;;;;;;15472207;23;20028;-34
2023/10/29 12:37:53;;;;;;;5.30;0.82;;;15.70;99.90;;;;;;15471375;23;20031;-34
2023/10/29 12:43:57;;;;;;;2.35;0.50;;;15.50;99.90;;;;;;15453945;23;20031;-34
2023/10/29 12:50:01;;;;;;;2.03;0.60;;;15.40;99.90;;;;;;15486162;23;20109;-34
2023/10/29 12:56:14;;;;;;;4.85;0.55;;;15.30;99.90;;;;;;15487613;23;20035;-34
2023/10/29 13:02:28;;;;;;;2.22;0.45;;;15.60;99.90;;;;;;15485178;23;20027;-34
2023/10/29 13:08:30;;;;;;;2.70;0.65;;;15.80;99.90;;;;;;15478828;23;20039;-34
2023/10/29 13:14:33;;;;;;;3.22;0.55;;;15.60;99.90;;;;;;15475094;23;20027;-34
2023/10/29 13:20:36;;;;;;;1.23;0.52;;;15.30;99.90;;;;;;15478314;22;20024;-34
2023/10/29 13:26:38;;;;;;;2.78;0.88;;;15.10;99.90;;;;;;15482285;23;20454;-34
2023/10/29 13:32:40;;;;;;;1.90;0.70;;;15.10;99.90;;;;;;15453470;23;20741;-34
2023/10/29 13:38:42;;;;;;;1.38;0.40;;;15.00;99.90;;;;;;15476759;23;20035;-35
2023/10/29 13:44:44;;;;;;;1.63;0.50;;;14.90;99.90;;;;;;15465784;23;20059;-34
2023/10/29 13:50:46;;;;;;;3.70;0.55;;;14.90;99.90;;;;;;15479435;23;20521;-34
2023/10/29 13:56:49;;;;;;;2.30;0.57;;;14.90;99.90;;;;;;15453466;23;20306;-35
2023/10/29 14:02:51;;;;;;;2.55;0.68;;;14.70;99.90;;;;;;15484246;23;20063;-34
2023/10/29 14:08:56;;;;;;;1.85;0.60;;;14.70;99.90;;;;;;15477036;23;20387;-34
2023/10/29 14:14:58;;;;;;;1.90;0.50;;;14.60;99.90;;;;;;15476045;23;20034;-33
2023/10/29 14:21:02;;;;;;;0.80;0.50;;;14.60;99.90;;;;;;15475200;22;20417;-34
2023/10/29 14:27:04;;;;;;;1.92;0.68;;;14.60;99.90;;;;;;15480686;23;20031;-34
2023/10/29 14:33:07;;;;;;;2.63;0.63;;;14.40;99.90;;;;;;15456546;23;20369;-34
2023/10/29 14:39:09;;;;;;;2.95;0.80;;;14.20;99.90;;;;;;15470960;23;20449;-34
2023/10/29 14:45:12;;;;;;;3.60;0.73;;;14.10;99.90;;;;;;15484376;23;20493;-34
2023/10/29 14:51:15;;;;;;;2.13;0.60;;;14.10;99.90;;;;;;15472952;23;20047;-34
2023/10/29 14:57:17;;;;;;;2.92;0.30;;;14.10;99.90;;;;;;15470623;23;20516;-34
2023/10/29 15:03:30;;;;;;;0.85;0.50;;;14.00;99.90;;;;;;15452793;23;20020;-34
2023/10/29 15:09:32;;;;;;;3.42;0.70;;;14.00;99.90;;;;;;15479745;23;20059;-34
2023/10/29 15:15:36;;;;;;;2.55;0.50;;;14.00;99.90;;;;;;15445136;23;20030;-34
2023/10/29 15:21:38;;;;;;;2.17;0.60;;;13.90;99.90;;;;;;15478786;22;20099;-34
2023/10/29 15:27:40;;;;;;;1.00;0.50;;;13.70;99.90;;;;;;15474713;23;20105;-34
2023/10/29 15:33:43;;;;;;;0.70;0.40;;;13.70;99.90;;;;;;15470035;23;20101;-34
2023/10/29 15:39:45;;;;;;;1.02;0.40;;;13.60;99.90;;;;;;15469995;23;20453;-34
2023/10/29 15:45:47;;;;;;;1.80;0.47;;;13.60;99.90;;;;;;15475723;23;20024;-34
2023/10/29 15:51:54;;;;;;;0.82;0.40;;;13.60;99.90;;;;;;15468334;23;20373;-34
2023/10/29 15:57:56;;;;;;;0.60;0.45;;;13.60;99.90;;;;;;15479348;23;20028;-34
2023/10/29 16:04:00;;;;;;;0.77;0.43;;;13.50;99.90;;;;;;15481128;23;20028;-34
2023/10/29 16:10:02;;;;;;;2.92;0.47;;;13.50;99.90;;;;;;15455440;23;20051;-35
2023/10/29 16:16:04;;;;;;;0.45;0.30;;;13.50;99.90;;;;;;15483488;23;20031;-34
2023/10/29 16:22:06;;;;;;;1.52;0.60;;;13.50;99.90;;;;;;15451494;23;20039;-34
2023/10/29 16:28:08;;;;;;;1.52;0.60;;;13.50;99.90;;;;;;15484634;23;20342;-34
2023/10/29 16:34:10;;;;;;;3.13;0.40;;;13.60;99.90;;;;;;15449803;23;20039;-34
2023/10/29 16:40:13;;;;;;;1.48;0.60;;;13.70;99.90;;;;;;15478899;23;20020;-34
2023/10/29 16:46:16;;;;;;;1.48;0.40;;;13.70;99.90;;;;;;15479316;23;20426;-34
2023/10/29 16:52:18;;;;;;;0.43;0.33;;;13.60;99.90;;;;;;15475921;23;20119;-34
2023/10/29 16:58:21;;;;;;;0.73;0.30;;;13.70;99.90;;;;;;15436421;23;20679;-34
2023/10/29 17:04:23;;;;;;;1.77;0.47;;;13.70;99.90;;;;;;15467507;23;20427;-34
2023/10/29 17:10:24;;;;;;;0.90;0.40;;;13.70;99.90;;;;;;15439987;23;20031;-34
2023/10/29 17:16:26;;;;;;;2.90;0.47;;;13.70;99.90;;;;;;15475030;23;20489;-34
2023/10/29 17:22:29;;;;;;;0.88;0.50;;;13.70;99.90;;;;;;15469916;22;20023;-34
2023/10/29 17:28:31;;;;;;;1.38;0.60;;;13.80;99.90;;;;;;15468079;23;20028;-34
2023/10/29 17:34:32;;;;;;;1.08;0.52;;;13.80;99.90;;;;;;15470192;23;20028;-34
2023/10/29 17:40:36;;;;;;;0.88;0.50;;;13.80;99.90;;;;;;15478548;23;20122;-34
2023/10/29 17:46:38;;;;;;;3.95;0.40;;;13.70;99.90;;;;;;15453004;23;20024;-34
2023/10/29 17:52:40;;;;;;;0.98;0.40;;;13.80;99.90;;;;;;15481957;23;20036;-35
2023/10/29 17:58:43;;;;;;;1.95;0.75;;;13.70;99.90;;;;;;15481909;23;20868;-34
2023/10/29 18:04:45;;;;;;;0.93;0.40;;;13.70;99.90;;;;;;15478211;23;20358;-34
2023/10/29 18:10:48;;;;;;;0.40;0.30;;;13.50;99.90;;;;;;15470593;23;20227;-34
2023/10/29 18:16:51;;;;;;;2.17;0.50;;;13.50;99.90;;;;;;15465534;23;20055;-34
2023/10/29 18:22:53;;;;;;;0.80;0.50;;;13.50;99.90;;;;;;15474058;22;20028;-35
2023/10/29 18:28:57;;;;;;;0.90;0.40;;;13.50;99.90;;;;;;15468521;23;20037;-34
2023/10/29 18:35:00;;;;;;;1.63;0.60;;;13.40;99.90;;;;;;15479510;23;20028;-34
2023/10/29 18:41:10;;;;;;;1.58;0.40;;;13.30;99.90;;;;;;15475762;23;20072;-34
2023/10/29 18:47:12;;;;;;;1.95;0.60;;;13.30;99.90;;;;;;15481031;23;20051;-34
2023/10/29 18:53:13;;;;;;;0.88;0.50;;;13.20;99.90;;;;;;15479916;23;20060;-34
2023/10/29 18:59:15;;;;;;;2.75;0.55;;;13.20;99.90;;;;;;15482140;23;20315;-34
2023/10/29 19:05:17;;;;;;;1.85;0.50;;;13.10;99.90;;;;;;15467154;23;20525;-34
2023/10/29 19:11:19;;;;;;;2.95;0.30;;;13.00;99.90;;;;;;15451665;23;20027;-34
2023/10/29 19:17:21;;;;;;;1.48;0.50;;;13.00;99.90;;;;;;15481873;22;20515;-34
2023/10/29 19:23:23;;;;;;;2.97;0.82;;;12.90;99.90;;;;;;15476813;23;20020;-34
2023/10/29 19:29:25;;;;;;;1.23;0.60;;;12.90;99.90;;;;;;15449111;23;20075;-33
2023/10/29 19:35:31;;;;;;;3.08;0.55;;;12.90;99.90;;;;;;15481682;23;20027;-33
2023/10/29 19:41:34;;;;;;;2.85;0.43;;;12.90;99.90;;;;;;15478111;23;20020;-34
2023/10/29 19:47:36;;;;;;;1.77;0.47;;;12.90;99.90;;;;;;15468866;23;20446;-34
2023/10/29 19:53:38;;;;;;;0.98;0.40;;;12.80;99.90;;;;;;15447437;23;20735;-34
2023/10/29 19:59:40;;;;;;;3.20;0.60;;;12.80;99.90;;;;;;15454235;23;20027;-34
2023/10/29 20:05:42;;;;;;;2.25;0.50;;;12.80;99.90;;;;;;15470415;23;20031;-34
2023/10/29 20:11:43;;;;;;;2.03;0.60;;;12.80;99.90;;;;;;15475995;23;20027;-34
2023/10/29 20:17:46;;;;;;;2.50;0.60;;;12.80;99.90;;;;;;15476172;22;20028;-34
2023/10/29 20:23:48;;;;;;;2.05;0.55;;;12.80;99.90;;;;;;15477612;23;20024;-34
2023/10/29 20:29:50;;;;;;;3.50;0.68;;;12.90;99.90;;;;;;15477616;23;20614;-34
2023/10/29 20:35:51;;;;;;;3.03;0.43;;;13.00;99.90;;;;;;15474922;23;20032;-34
2023/10/29 20:41:53;;;;;;;2.50;0.60;;;13.20;99.90;;;;;;15468869;23;20376;-34
2023/10/29 20:47:55;;;;;;;2.40;0.50;;;13.20;99.90;;;;;;15476795;23;20024;-34
2023/10/29 20:53:57;;;;;;;3.20;0.68;;;13.30;99.90;;;;;;15455803;23;20394;-34
2023/10/29 21:00:00;;;;;;;2.35;0.60;;;13.40;99.90;;;;;;15481225;23;20016;-34
2023/10/29 21:06:02;;;;;;;1.88;0.60;;;13.30;99.90;;;;;;15483177;23;20043;-33
2023/10/29 21:12:05;;;;;;;2.42;0.60;;;13.30;99.90;;;;;;15481391;23;20024;-34
2023/10/29 21:18:07;;;;;;;1.75;0.60;;;13.20;99.90;;;;;;15484086;22;20032;-34
2023/10/29 21:24:10;;;;;;;3.40;0.70;;;13.30;99.90;;;;;;15481545;23;20024;-34
2023/10/29 21:30:13;;;;;;;5.90;0.68;;;13.30;99.90;;;;;;15481526;23;20038;-34
2023/10/29 21:36:15;;;;;;;2.65;0.60;;;13.30;99.90;;;;;;15453242;23;20024;-34
2023/10/29 21:42:16;;;;;;;2.83;0.50;;;13.30;99.90;;;;;;15478279;23;20024;-34
2023/10/29 21:48:18;;;;;;;4.03;0.77;;;13.30;99.90;;;;;;15454652;23;20065;-34
2023/10/29 21:54:22;;;;;;;4.25;0.80;;;13.20;99.90;;;;;;15476761;23;20028;-34
2023/10/29 22:00:24;;;;;;;2.03;0.50;;;13.20;99.90;;;;;;15479821;23;20059;-33
2023/10/29 22:06:27;;;;;;;5.55;1.10;;;13.10;99.90;;;;;;15480943;23;20024;-33
2023/10/29 22:12:29;;;;;;;4.80;0.90;;;12.90;99.90;;;;;;15452079;23;20020;-34
2023/10/29 22:18:32;;;;;;;4.75;1.00;;;12.90;99.90;;;;;;15479928;22;20024;-34
2023/10/29 22:24:34;;;;;;;6.32;0.95;;;12.90;99.90;;;;;;15477412;23;20020;-34
2023/10/29 22:30:36;;;;;;;4.20;0.80;;;12.90;99.90;;;;;;15481001;23;20028;-34
2023/10/29 22:36:38;;;;;;;1.85;0.55;;;12.80;99.90;;;;;;15477811;23;20035;-34
2023/10/29 22:42:40;;;;;;;3.75;0.77;;;12.90;99.90;;;;;;15479557;23;20020;-34
2023/10/29 22:48:42;;;;;;;2.60;0.90;;;12.80;99.90;;;;;;15477696;23;20658;-34
2023/10/29 22:54:50;;;;;;;4.80;0.90;;;12.80;99.90;;;;;;15480619;23;20046;-34
2023/10/29 23:00:52;;;;;;;6.13;0.80;;;12.70;99.90;;;;;;15477122;23;20059;-34
2023/10/29 23:06:54;;;;;;;3.58;0.63;;;12.70;99.90;;;;;;15474873;23;20027;-34
2023/10/29 23:12:56;;;;;;;4.90;1.00;;;12.70;99.90;;;;;;15480159;23;20028;-34
2023/10/29 23:18:58;;;;;;;4.80;0.90;;;12.70;99.90;;;;;;15480878;22;20028;-34
2023/10/29 23:25:00;;;;;;;6.22;1.15;;;12.70;99.90;;;;;;15478141;23;20024;-34
2023/10/29 23:31:03;;;;;;;6.15;0.77;;;12.70;99.90;;;;;;15450650;23;20089;-33
2023/10/29 23:37:05;;;;;;;3.20;0.75;;;12.60;99.90;;;;;;15466373;23;20046;-34
2023/10/29 23:43:07;;;;;;;6.57;2.15;;;12.50;99.90;;;;;;15474776;23;20159;-33
2023/10/29 23:49:09;;;;;;;5.68;1.30;;;12.40;99.90;;;;;;15480038;23;20024;-34
2023/10/29 23:55:11;;;;;;;5.63;1.20;;;12.30;99.90;;;;;;15477268;23;20024;-34
